Time;durP1;ratioP1;P1;durP2;ratioP2;P2;SDS_P1;SDS_P2;PMS_P1;PMS_P2;Temp;Humidity;BMP_temperature;BMP_pressure;BME280_temperature;BME280_humidity;BME280_pressure;Samples;Min_cycle;Max_cycle;Signal;HPM_P1;HPM_P2
2021/08/19 00:01:17;;;;;;;0.40;0.20;;;;;;;19.24;100.00;100187.91;4935705;29;20452;-56
2021/08/19 00:03:45;;;;;;;0.40;0.20;;;;;;;19.23;100.00;100174.53;4935493;29;20465;-56
2021/08/19 00:06:12;;;;;;;0.40;0.30;;;;;;;19.33;100.00;100172.09;4951250;29;20890;-56
2021/08/19 00:08:40;;;;;;;0.40;0.30;;;;;;;19.24;100.00;100171.72;4954558;29;20992;-56
2021/08/19 00:11:08;;;;;;;0.40;0.20;;;;;;;19.21;100.00;100166.53;4953052;28;20483;-56
2021/08/19 00:13:36;;;;;;;0.40;0.20;;;;;;;19.23;100.00;100166.44;4954560;28;20564;-56
2021/08/19 00:16:03;;;;;;;0.40;0.20;;;;;;;19.32;100.00;100170.34;4937774;28;20515;-56
2021/08/19 00:18:30;;;;;;;0.40;0.20;;;;;;;19.33;100.00;100164.00;4935434;29;20451;-56
2021/08/19 00:20:57;;;;;;;0.60;0.60;;;;;;;19.21;100.00;100168.38;4935446;29;20505;-56
2021/08/19 00:23:24;;;;;;;0.40;0.20;;;;;;;19.34;100.00;100169.28;4935741;29;20448;-57
2021/08/19 00:25:51;;;;;;;0.70;0.70;;;;;;;19.33;100.00;100169.41;4939879;29;20478;-56
2021/08/19 00:28:18;;;;;;;0.40;0.20;;;;;;;19.26;100.00;100159.97;4954280;28;20542;-56
2021/08/19 00:30:45;;;;;;;0.40;0.20;;;;;;;19.23;100.00;100156.53;4954135;28;20514;-56
2021/08/19 00:33:12;;;;;;;0.40;0.30;;;;;;;19.10;100.00;100154.75;4954258;28;20570;-56
2021/08/19 00:35:39;;;;;;;0.40;0.20;;;;;;;19.11;100.00;100151.09;4948531;28;20494;-56
2021/08/19 00:38:06;;;;;;;0.50;0.40;;;;;;;19.06;100.00;100158.63;4928082;29;20484;-56
2021/08/19 00:40:33;;;;;;;0.40;0.20;;;;;;;19.15;100.00;100156.16;4935167;29;20452;-56
2021/08/19 00:43:04;;;;;;;0.40;0.20;;;;;;;19.23;100.00;100159.22;4935154;29;21036;-56
2021/08/19 00:45:31;;;;;;;0.40;0.30;;;;;;;19.08;100.00;100153.97;4941823;29;20478;-56
2021/08/19 00:47:58;;;;;;;0.60;0.40;;;;;;;19.13;100.00;100147.31;4953625;28;20913;-56
2021/08/19 00:50:26;;;;;;;0.40;0.20;;;;;;;19.13;100.00;100150.00;4954132;28;20517;-56
2021/08/19 00:52:53;;;;;;;0.40;0.20;;;;;;;19.26;99.95;100154.59;4954003;28;21055;-56
2021/08/19 00:55:21;;;;;;;0.40;0.30;;;;;;;19.04;100.00;100155.13;4946410;29;20499;-56
2021/08/19 00:57:48;;;;;;;1.80;0.60;;;;;;;19.09;100.00;100151.19;4934999;29;20472;-56
2021/08/19 01:00:15;;;;;;;0.40;0.20;;;;;;;19.30;100.00;100153.41;4934958;29;21025;-56
2021/08/19 01:02:50;;;;;;;0.40;0.20;;;;;;;19.10;100.00;100149.34;4935531;29;20452;-56
2021/08/19 01:05:20;;;;;;;0.40;0.20;;;;;;;18.96;100.00;100157.47;4954217;28;20545;-56
2021/08/19 01:07:47;;;;;;;0.40;0.20;;;;;;;19.11;100.00;100156.47;4953970;28;20853;-57
2021/08/19 01:10:14;;;;;;;0.40;0.30;;;;;;;19.12;100.00;100156.38;4955683;28;20451;-56
2021/08/19 01:12:43;;;;;;;0.53;0.53;;;;;;;19.08;100.00;100154.84;4956616;28;20522;-56
2021/08/19 01:15:11;;;;;;;0.40;0.20;;;;;;;19.10;100.00;100152.06;4957648;28;20447;-57
2021/08/19 01:17:38;;;;;;;0.40;0.30;;;;;;;19.15;100.00;100150.75;4940661;29;20476;-56
2021/08/19 01:20:06;;;;;;;0.40;0.20;;;;;;;19.12;100.00;100147.41;4938766;29;20456;-56
2021/08/19 01:22:34;;;;;;;0.40;0.20;;;;;;;19.16;100.00;100151.63;4938629;29;20486;-56
2021/08/19 01:25:01;;;;;;;0.40;0.20;;;;;;;18.96;100.00;100147.56;4938471;29;20456;-56
2021/08/19 01:27:30;;;;;;;0.40;0.20;;;;;;;18.95;100.00;100159.31;4956161;29;20509;-56
2021/08/19 01:29:57;;;;;;;0.40;0.30;;;;;;;18.96;100.00;100147.56;4948335;28;20514;-55
2021/08/19 01:32:24;;;;;;;0.50;0.40;;;;;;;18.98;100.00;100144.78;4957228;28;20550;-56
2021/08/19 01:34:53;;;;;;;0.40;0.30;;;;;;;18.85;100.00;100150.97;4955087;28;20837;-55
2021/08/19 01:37:20;;;;;;;0.50;0.40;;;;;;;18.89;100.00;100148.91;4938183;29;20453;-56
2021/08/19 01:39:47;;;;;;;0.40;0.20;;;;;;;18.87;100.00;100132.00;4938371;29;20452;-56
2021/08/19 01:42:15;;;;;;;0.40;0.30;;;;;;;18.84;100.00;100137.59;4937142;29;20942;-56
2021/08/19 01:44:42;;;;;;;0.40;0.20;;;;;;;18.91;100.00;100142.50;4940899;29;20463;-56
2021/08/19 01:47:11;;;;;;;0.40;0.20;;;;;;;18.88;100.00;100150.75;4957209;28;20517;-56
2021/08/19 01:49:40;;;;;;;0.40;0.20;;;;;;;18.90;100.00;100145.25;4957005;28;20514;-56
2021/08/19 01:52:10;;;;;;;0.50;0.40;;;;;;;18.87;100.00;100148.16;4956972;28;20574;-55
2021/08/19 01:54:37;;;;;;;1.73;0.83;;;;;;;18.86;100.00;100149.13;4952254;28;20490;-56
2021/08/19 01:57:04;;;;;;;0.40;0.20;;;;;;;18.82;100.00;100143.09;4937856;29;20495;-56
2021/08/19 01:59:31;;;;;;;1.07;0.97;;;;;;;18.79;100.00;100151.38;4937918;29;20480;-56
2021/08/19 02:02:00;;;;;;;0.40;0.20;;;;;;;18.83;100.00;100139.41;4937879;29;20949;-56
2021/08/19 02:04:29;;;;;;;0.40;0.20;;;;;;;18.78;100.00;100146.09;4937743;29;20460;-56
2021/08/19 02:06:56;;;;;;;0.40;0.20;;;;;;;18.91;100.00;100142.50;4949968;29;20517;-56
2021/08/19 02:09:23;;;;;;;1.53;0.63;;;;;;;18.86;100.00;100143.75;4956489;28;20503;-56
2021/08/19 02:11:50;;;;;;;2.10;2.00;;;;;;;18.87;100.00;100142.78;4946518;28;20487;-56
2021/08/19 02:14:17;;;;;;;0.43;0.30;;;;;;;18.77;100.00;100139.81;4956426;29;20484;-56
2021/08/19 02:16:44;;;;;;;0.57;0.53;;;;;;;18.80;100.00;100149.53;4944277;28;20484;-56
2021/08/19 02:19:11;;;;;;;0.40;0.20;;;;;;;18.80;100.00;100146.84;4937369;29;21052;-55
2021/08/19 02:21:39;;;;;;;0.40;0.20;;;;;;;18.66;100.00;100136.97;4937057;29;20491;-56
2021/08/19 02:24:06;;;;;;;0.40;0.30;;;;;;;18.73;100.00;100148.19;4937659;29;20452;-56
2021/08/19 02:26:33;;;;;;;0.40;0.30;;;;;;;18.71;100.00;100140.22;4950189;29;20945;-56
2021/08/19 02:29:00;;;;;;;0.50;0.43;;;;;;;18.82;100.00;100142.22;4952814;28;20472;-56
2021/08/19 02:31:27;;;;;;;0.60;0.60;;;;;;;18.81;100.00;100144.06;4950893;29;20479;-56
2021/08/19 02:33:54;;;;;;;0.40;0.20;;;;;;;18.79;100.00;100145.13;4956462;28;21023;-56
2021/08/19 02:36:21;;;;;;;0.50;0.40;;;;;;;18.65;100.00;100143.31;4942300;29;20504;-57
2021/08/19 02:38:48;;;;;;;0.40;0.20;;;;;;;18.71;100.00;100137.53;4937171;29;20472;-56
2021/08/19 02:41:15;;;;;;;0.70;0.67;;;;;;;18.59;100.00;100138.28;4937224;29;20487;-56
2021/08/19 02:43:44;;;;;;;0.40;0.30;;;;;;;18.59;100.00;100143.66;4935849;29;20452;-57
2021/08/19 02:46:12;;;;;;;0.40;0.20;;;;;;;18.57;100.00;100135.69;4951585;29;21023;-56
2021/08/19 02:48:41;;;;;;;4.30;2.17;;;;;;;18.53;100.00;100131.47;4954578;29;20465;-56
2021/08/19 02:51:09;;;;;;;0.40;0.20;;;;;;;18.59;100.00;100133.75;4955826;28;20973;-56
2021/08/19 02:53:36;;;;;;;0.40;0.20;;;;;;;18.53;100.00;100136.00;4955856;28;21059;-56
2021/08/19 02:56:04;;;;;;;0.50;0.33;;;;;;;18.47;100.00;100129.16;4940170;28;20962;-56
2021/08/19 02:58:30;;;;;;;0.40;0.20;;;;;;;18.50;100.00;100120.00;4936685;29;20507;-56
2021/08/19 03:00:57;;;;;;;0.40;0.20;;;;;;;18.46;100.00;100115.78;4936724;29;20491;-56
2021/08/19 03:03:27;;;;;;;4.30;0.80;;;;;;;18.40;100.00;100113.50;4936636;29;20467;-55
2021/08/19 03:05:54;;;;;;;0.40;0.20;;;;;;;18.43;100.00;100113.31;4940387;29;20462;-56
2021/08/19 03:08:21;;;;;;;0.50;0.40;;;;;;;18.39;100.00;100111.78;4954551;29;20482;-56
2021/08/19 03:10:48;;;;;;;0.40;0.20;;;;;;;18.32;100.00;100112.16;4953319;28;20451;-56
2021/08/19 03:13:15;;;;;;;0.40;0.20;;;;;;;18.31;100.00;100099.66;4946831;29;20997;-56
2021/08/19 03:15:42;;;;;;;0.40;0.20;;;;;;;18.19;100.00;100095.06;4951206;28;20482;-56
2021/08/19 03:18:09;;;;;;;0.40;0.20;;;;;;;18.30;100.00;100105.13;4936319;29;20480;-56
2021/08/19 03:20:36;;;;;;;0.40;0.30;;;;;;;18.33;100.00;100099.56;4936749;29;20488;-56
2021/08/19 03:23:03;;;;;;;0.40;0.20;;;;;;;18.30;100.00;100100.63;4936270;29;20488;-56
2021/08/19 03:25:30;;;;;;;0.40;0.30;;;;;;;18.24;100.00;100097.47;4940865;29;20538;-56
2021/08/19 03:28:02;;;;;;;0.40;0.20;;;;;;;18.27;100.00;100095.44;4955367;28;20530;-56
2021/08/19 03:30:29;;;;;;;0.40;0.20;;;;;;;18.31;100.00;100096.97;4945828;28;20975;-56
2021/08/19 03:32:57;;;;;;;0.73;0.73;;;;;;;18.32;100.00;100104.06;4954902;28;20787;-56
2021/08/19 03:35:24;;;;;;;0.50;0.30;;;;;;;18.30;100.00;100106.00;4948759;28;20511;-56
2021/08/19 03:37:51;;;;;;;0.40;0.20;;;;;;;18.18;100.00;100096.00;4935894;29;20472;-56
2021/08/19 03:40:18;;;;;;;0.40;0.20;;;;;;;18.26;100.00;100107.16;4936099;29;20516;-56
2021/08/19 03:42:46;;;;;;;0.40;0.20;;;;;;;18.30;100.00;100107.84;4936038;29;20499;-55
2021/08/19 03:45:17;;;;;;;0.40;0.30;;;;;;;18.25;100.00;100108.13;4942949;29;20455;-56
2021/08/19 03:47:43;;;;;;;0.40;0.20;;;;;;;18.26;100.00;100111.69;4954546;28;20522;-56
2021/08/19 03:50:11;;;;;;;0.40;0.20;;;;;;;18.59;100.00;100112.22;4955059;28;20949;-55
2021/08/19 03:52:38;;;;;;;0.50;0.33;;;;;;;18.33;100.00;100113.00;4954982;28;20498;-56
2021/08/19 03:55:06;;;;;;;0.40;0.20;;;;;;;18.31;100.00;100110.41;4947120;28;20508;-56
2021/08/19 03:57:33;;;;;;;0.40;0.20;;;;;;;18.16;100.00;100113.22;4935663;29;20508;-56
2021/08/19 04:00:00;;;;;;;0.40;0.30;;;;;;;18.33;100.00;100113.00;4935854;29;20979;-55
2021/08/19 04:02:27;;;;;;;9.27;0.83;;;;;;;18.20;100.00;100115.63;4935936;29;20447;-55
2021/08/19 04:04:54;;;;;;;0.50;0.33;;;;;;;18.25;100.00;100121.59;4934571;29;20997;-55
2021/08/19 04:07:20;;;;;;;0.73;0.73;;;;;;;18.29;100.00;100119.56;4950988;29;20493;-55
2021/08/19 04:09:48;;;;;;;0.50;0.30;;;;;;;18.19;100.00;100118.41;4954783;28;20455;-56
2021/08/19 04:12:15;;;;;;;0.40;0.20;;;;;;;18.25;100.00;100123.41;4944014;28;20984;-55
2021/08/19 04:14:42;;;;;;;0.40;0.20;;;;;;;18.21;100.00;100121.84;4954659;28;20452;-56
2021/08/19 04:17:09;;;;;;;0.40;0.20;;;;;;;18.23;100.00;100126.22;4938792;28;20452;-55
2021/08/19 04:19:36;;;;;;;0.40;0.20;;;;;;;18.29;100.00;100122.25;4935711;29;20476;-55
2021/08/19 04:22:03;;;;;;;0.40;0.20;;;;;;;18.31;100.00;100129.25;4935445;29;20487;-56
2021/08/19 04:24:30;;;;;;;0.40;0.30;;;;;;;18.19;100.00;100121.97;4935315;29;20488;-54
2021/08/19 04:26:56;;;;;;;0.40;0.20;;;;;;;18.26;100.00;100127.84;4952180;29;20443;-55
2021/08/19 04:29:23;;;;;;;0.40;0.20;;;;;;;18.26;100.00;100125.16;4947786;28;20537;-55
2021/08/19 04:31:50;;;;;;;0.40;0.20;;;;;;;18.27;100.00;100124.19;4952150;29;20975;-55
2021/08/19 04:34:17;;;;;;;0.40;0.20;;;;;;;18.32;100.00;100119.38;4954229;28;20578;-56
2021/08/19 04:36:45;;;;;;;0.40;0.20;;;;;;;18.26;100.00;100119.75;4937231;28;20460;-55
2021/08/19 04:39:12;;;;;;;0.40;0.20;;;;;;;18.22;100.00;100120.91;4934995;29;20476;-55
2021/08/19 04:41:39;;;;;;;0.40;0.20;;;;;;;18.22;100.00;100119.06;4934970;29;20431;-55
2021/08/19 04:44:06;;;;;;;0.40;0.30;;;;;;;18.15;100.00;100125.81;4935302;29;20546;-56
2021/08/19 04:46:33;;;;;;;0.40;0.20;;;;;;;18.14;100.00;100118.69;4952728;29;20483;-55
2021/08/19 04:49:05;;;;;;;0.60;0.50;;;;;;;18.18;100.00;100111.28;4954498;28;20510;-59
2021/08/19 04:51:36;;;;;;;0.40;0.30;;;;;;;18.13;100.00;100118.81;4954035;28;20529;-59
2021/08/19 04:54:07;;;;;;;0.40;0.20;;;;;;;18.11;100.00;100110.84;4953814;28;20566;-59
2021/08/19 04:56:37;;;;;;;0.40;0.20;;;;;;;18.19;100.00;100116.56;4933383;29;20468;-59
2021/08/19 04:59:05;;;;;;;0.40;0.20;;;;;;;18.25;100.00;100118.91;4934917;29;21020;-59
2021/08/19 05:01:33;;;;;;;0.40;0.20;;;;;;;17.90;100.00;100120.22;4934847;29;20484;-59
2021/08/19 05:04:01;;;;;;;0.40;0.20;;;;;;;17.96;100.00;100118.03;4934840;29;20817;-59
2021/08/19 05:06:29;;;;;;;0.40;0.20;;;;;;;17.82;100.00;100126.09;4943421;29;21008;-59
2021/08/19 05:08:59;;;;;;;0.40;0.20;;;;;;;17.82;100.00;100128.78;4953654;29;20475;-59
2021/08/19 05:11:26;;;;;;;0.40;0.33;;;;;;;17.87;100.00;100120.41;4946772;29;20547;-59
2021/08/19 05:13:57;;;;;;;0.40;0.20;;;;;;;18.10;100.00;100129.75;4950892;29;20498;-59
2021/08/19 05:16:24;;;;;;;0.40;0.20;;;;;;;18.00;100.00;100130.31;4943850;28;20445;-59
2021/08/19 05:18:51;;;;;;;0.40;0.30;;;;;;;17.87;100.00;100121.28;4934668;29;20479;-59
2021/08/19 05:21:18;;;;;;;0.40;0.30;;;;;;;17.93;100.00;100128.94;4934968;29;20491;-59
2021/08/19 05:23:45;;;;;;;0.53;0.47;;;;;;;17.84;100.00;100121.47;4934654;29;20874;-59
2021/08/19 05:26:13;;;;;;;0.40;0.20;;;;;;;17.92;100.00;100126.34;4945451;29;20455;-59
2021/08/19 05:28:40;;;;;;;0.50;0.40;;;;;;;18.06;100.00;100127.22;4952773;28;20545;-59
2021/08/19 05:31:08;;;;;;;0.40;0.20;;;;;;;18.25;100.00;100136.88;4944471;29;20506;-59
2021/08/19 05:33:36;;;;;;;11.00;0.97;;;;;;;18.26;100.00;100128.69;4953422;28;20856;-58
2021/08/19 05:36:07;;;;;;;0.40;0.20;;;;;;;18.27;100.00;100133.13;4942265;28;20460;-59
2021/08/19 05:38:37;;;;;;;0.77;0.77;;;;;;;18.37;100.00;100136.09;4934602;29;20504;-59
2021/08/19 05:41:05;;;;;;;0.40;0.20;;;;;;;18.39;100.00;100136.88;4934714;29;20528;-58
2021/08/19 05:43:31;;;;;;;0.73;0.73;;;;;;;18.47;100.00;100139.91;4934524;29;20456;-59
2021/08/19 05:45:58;;;;;;;0.40;0.20;;;;;;;18.45;100.00;100143.69;4947233;29;20500;-58
2021/08/19 05:48:26;;;;;;;0.40;0.20;;;;;;;18.44;100.00;100140.13;4953645;28;20483;-59
2021/08/19 05:50:53;;;;;;;0.40;0.20;;;;;;;18.42;100.00;100147.44;4953704;28;20489;-59
2021/08/19 05:53:19;;;;;;;0.40;0.30;;;;;;;18.63;100.00;100146.06;4953546;28;20491;-59
2021/08/19 05:55:46;;;;;;;0.40;0.30;;;;;;;18.51;100.00;100146.00;4953767;28;20462;-59
2021/08/19 05:58:14;;;;;;;0.40;0.20;;;;;;;18.51;100.00;100151.38;4937765;29;20989;-58
2021/08/19 06:00:50;;;;;;;0.40;0.20;;;;;;;18.92;100.00;100151.44;4937674;29;20954;-59
2021/08/19 06:03:22;;;;;;;0.60;0.60;;;;;;;18.78;100.00;100160.41;4938044;29;20976;-59
2021/08/19 06:05:49;;;;;;;0.40;0.20;;;;;;;18.68;100.00;100161.09;4940569;29;20981;-59
2021/08/19 06:08:17;;;;;;;0.40;0.20;;;;;;;18.69;100.00;100162.81;4956813;28;20471;-59
2021/08/19 06:10:44;;;;;;;0.40;0.37;;;;;;;18.57;100.00;100159.91;4954964;28;20479;-58
2021/08/19 06:13:12;;;;;;;0.40;0.20;;;;;;;18.63;100.00;100162.22;4947157;29;20495;-58
2021/08/19 06:15:39;;;;;;;0.50;0.40;;;;;;;18.70;100.00;100162.72;4952879;28;20512;-59
2021/08/19 06:18:06;;;;;;;0.40;0.20;;;;;;;18.62;100.00;100168.56;4937492;29;20478;-58
2021/08/19 06:20:33;;;;;;;0.40;0.20;;;;;;;18.69;100.00;100171.78;4936311;29;20452;-58
2021/08/19 06:23:00;;;;;;;0.40;0.20;;;;;;;19.13;100.00;100162.63;4937492;29;20942;-59
2021/08/19 06:25:27;;;;;;;0.40;0.20;;;;;;;19.29;100.00;100166.03;4941558;29;20901;-58
2021/08/19 06:27:54;;;;;;;0.40;0.20;;;;;;;19.15;100.00;100169.63;4956633;28;20503;-58
2021/08/19 06:30:21;;;;;;;1.70;1.60;;;;;;;19.09;100.00;100164.66;4945756;29;20451;-58
2021/08/19 06:32:48;;;;;;;0.40;0.20;;;;;;;18.89;100.00;100171.34;4956326;29;20486;-59
2021/08/19 06:35:16;;;;;;;0.40;0.20;;;;;;;18.83;100.00;100168.19;4949738;29;20431;-58
2021/08/19 06:37:44;;;;;;;0.40;0.20;;;;;;;18.78;100.00;100175.72;4937536;29;20559;-58
2021/08/19 06:40:11;;;;;;;0.40;0.30;;;;;;;18.81;100.00;100170.13;4936988;29;20480;-59
2021/08/19 06:42:38;;;;;;;0.40;0.20;;;;;;;18.80;100.00;100169.25;4937176;29;20480;-58
2021/08/19 06:45:06;;;;;;;0.40;0.20;;;;;;;18.91;100.00;100169.44;4937155;29;20454;-58
2021/08/19 06:47:33;;;;;;;0.40;0.20;;;;;;;18.83;100.00;100163.66;4949495;29;20558;-57
2021/08/19 06:50:00;;;;;;;0.43;0.27;;;;;;;19.07;100.00;100169.28;4956162;28;20451;-59
2021/08/19 06:52:27;;;;;;;0.40;0.30;;;;;;;18.90;100.00;100169.50;4955829;28;20492;-58
2021/08/19 06:54:54;;;;;;;0.40;0.30;;;;;;;18.82;100.00;100172.72;4956104;28;20495;-59
2021/08/19 06:57:21;;;;;;;0.47;0.30;;;;;;;18.93;100.00;100174.72;4942306;28;20448;-59
2021/08/19 06:59:47;;;;;;;0.40;0.20;;;;;;;18.88;100.00;100175.00;4936849;29;20590;-59
2021/08/19 07:02:14;;;;;;;0.40;0.30;;;;;;;18.83;100.00;100170.88;4936680;29;20543;-59
2021/08/19 07:04:42;;;;;;;0.40;0.30;;;;;;;18.85;100.00;100172.50;4935771;29;20452;-59
2021/08/19 07:07:09;;;;;;;0.40;0.20;;;;;;;18.88;100.00;100175.00;4949006;28;20477;-59
2021/08/19 07:09:36;;;;;;;0.40;0.30;;;;;;;19.15;100.00;100168.78;4956068;28;20451;-59
2021/08/19 07:12:03;;;;;;;0.40;0.20;;;;;;;19.22;100.00;100168.28;4944329;28;20491;-59
2021/08/19 07:14:30;;;;;;;0.53;0.50;;;;;;;19.43;100.00;100174.06;4955596;29;20550;-59
2021/08/19 07:16:57;;;;;;;0.50;0.40;;;;;;;19.24;100.00;100170.88;4942299;28;20456;-59
2021/08/19 07:19:24;;;;;;;0.53;0.53;;;;;;;19.43;100.00;100179.44;4936486;29;20558;-59
2021/08/19 07:21:52;;;;;;;0.40;0.30;;;;;;;19.48;100.00;100176.47;4936254;29;20503;-59
2021/08/19 07:24:19;;;;;;;2.17;2.10;;;;;;;19.77;100.00;100174.50;4936262;29;20422;-59
2021/08/19 07:26:46;;;;;;;0.40;0.40;;;;;;;19.85;100.00;100171.28;4950241;29;20456;-59
2021/08/19 07:29:13;;;;;;;0.50;0.50;;;;;;;19.80;100.00;100167.06;4949971;28;20499;-59
2021/08/19 07:31:40;;;;;;;0.40;0.30;;;;;;;19.35;100.00;100170.16;4951508;29;20455;-59
2021/08/19 07:34:07;;;;;;;0.93;0.70;;;;;;;19.38;100.00;100169.94;4955100;28;20565;-59
2021/08/19 07:36:34;;;;;;;0.40;0.30;;;;;;;19.31;100.00;100166.78;4939863;28;20499;-58
2021/08/19 07:39:04;;;;;;;0.40;0.20;;;;;;;19.16;100.00;100162.41;4936048;29;20493;-59
2021/08/19 07:41:32;;;;;;;0.40;0.20;;;;;;;19.25;100.00;100164.50;4935966;29;20954;-59
2021/08/19 07:44:00;;;;;;;0.97;0.97;;;;;;;19.35;100.00;100156.69;4934957;29;20504;-59
2021/08/19 07:46:27;;;;;;;0.40;0.20;;;;;;;19.59;100.00;100160.41;4945760;29;20459;-59
2021/08/19 07:48:56;;;;;;;0.40;0.20;;;;;;;19.61;100.00;100166.59;4945985;28;20515;-59
2021/08/19 07:51:23;;;;;;;0.40;0.20;;;;;;;19.49;100.00;100165.56;4955107;28;20577;-59
2021/08/19 07:53:50;;;;;;;0.40;0.20;;;;;;;19.53;100.00;100166.22;4954836;29;20487;-59
2021/08/19 07:56:17;;;;;;;0.40;0.20;;;;;;;19.81;100.00;100170.63;4950614;28;20861;-59
2021/08/19 07:58:44;;;;;;;0.40;0.30;;;;;;;20.09;100.00;100169.56;4935871;29;20515;-59
2021/08/19 08:01:12;;;;;;;0.40;0.20;;;;;;;19.92;100.00;100167.19;4935642;29;20459;-59
2021/08/19 08:03:39;;;;;;;0.40;0.30;;;;;;;19.88;100.00;100165.69;4935835;29;20455;-59
2021/08/19 08:06:06;;;;;;;0.40;0.20;;;;;;;20.20;100.00;100167.00;4940649;29;20483;-59
2021/08/19 08:08:33;;;;;;;0.40;0.20;;;;;;;20.13;100.00;100173.78;4954682;28;20471;-59
2021/08/19 08:11:00;;;;;;;0.50;0.40;;;;;;;20.24;100.00;100170.31;4950895;28;20460;-59
2021/08/19 08:13:27;;;;;;;0.73;0.70;;;;;;;20.38;100.00;100173.78;4946708;29;20455;-59
2021/08/19 08:15:54;;;;;;;0.40;0.20;;;;;;;20.27;100.00;100175.50;4949522;28;20946;-59
2021/08/19 08:18:21;;;;;;;0.63;0.63;;;;;;;20.26;100.00;100184.56;4935162;29;20504;-59
2021/08/19 08:20:48;;;;;;;0.50;0.40;;;;;;;20.76;100.00;100177.44;4935473;29;20463;-59
2021/08/19 08:23:18;;;;;;;0.40;0.20;;;;;;;20.20;100.00;100180.50;4935237;29;20452;-58
2021/08/19 08:25:47;;;;;;;0.83;0.83;;;;;;;20.26;100.00;100181.88;4940921;29;20456;-58
2021/08/19 08:28:16;;;;;;;0.40;0.30;;;;;;;20.56;100.00;100176.16;4954284;28;20446;-59
2021/08/19 08:30:45;;;;;;;0.40;0.33;;;;;;;20.32;100.00;100182.31;4945139;29;20781;-59
2021/08/19 08:33:13;;;;;;;0.40;0.20;;;;;;;20.28;100.00;100188.91;4954462;28;20484;-59
2021/08/19 08:35:40;;;;;;;0.40;0.20;;;;;;;20.22;100.00;100180.38;4945790;28;20568;-59
2021/08/19 08:38:11;;;;;;;0.40;0.20;;;;;;;20.65;100.00;100173.66;4933908;29;20515;-59
2021/08/19 08:40:40;;;;;;;0.50;0.30;;;;;;;20.63;100.00;100172.94;4935178;29;20444;-59
2021/08/19 08:43:07;;;;;;;0.40;0.20;;;;;;;20.82;100.00;100177.84;4935113;29;20467;-59
2021/08/19 08:45:39;;;;;;;0.40;0.20;;;;;;;20.99;100.00;100179.34;4945100;29;20485;-59
2021/08/19 08:48:12;;;;;;;0.40;0.20;;;;;;;21.43;99.96;100181.47;4953972;28;20919;-58
2021/08/19 08:50:41;;;;;;;0.50;0.37;;;;;;;21.38;100.00;100172.84;4954305;28;20502;-59
2021/08/19 08:53:09;;;;;;;2.10;0.63;;;;;;;21.52;98.34;100166.38;4954325;28;20542;-59
2021/08/19 08:55:37;;;;;;;0.40;0.20;;;;;;;21.68;96.71;100166.94;4942001;28;20524;-59
2021/08/19 08:58:06;;;;;;;0.40;0.30;;;;;;;21.83;97.47;100176.59;4935532;29;20478;-60
2021/08/19 09:00:33;;;;;;;0.40;0.20;;;;;;;21.87;95.76;100166.38;4935964;29;20467;-59
2021/08/19 09:03:11;;;;;;;0.50;0.40;;;;;;;22.35;93.58;100160.84;4935125;29;20448;-59
2021/08/19 09:05:40;;;;;;;0.40;0.23;;;;;;;22.20;93.29;100164.75;4935570;29;20483;-59
2021/08/19 09:08:20;;;;;;;0.97;0.97;;;;;;;22.27;93.08;100174.97;4954430;28;20503;-60
2021/08/19 09:10:49;;;;;;;0.40;0.20;;;;;;;22.17;91.69;100169.41;4952687;28;20513;-60
2021/08/19 09:13:23;;;;;;;0.40;0.20;;;;;;;22.22;91.86;100179.91;4946998;29;20426;-59
2021/08/19 09:15:52;;;;;;;0.40;0.20;;;;;;;22.56;91.22;100171.78;4947025;29;20498;-59
2021/08/19 09:18:34;;;;;;;0.40;0.20;;;;;;;22.07;91.42;100173.00;4935116;29;20536;-59
2021/08/19 09:21:01;;;;;;;0.40;0.20;;;;;;;22.29;92.71;100174.84;4934015;29;20484;-59
2021/08/19 09:23:28;;;;;;;0.40;0.30;;;;;;;22.59;92.16;100168.84;4935136;29;20482;-59
2021/08/19 09:25:55;;;;;;;1.43;0.57;;;;;;;22.62;90.95;100168.59;4943841;29;20457;-60
2021/08/19 09:28:29;;;;;;;1.37;1.27;;;;;;;22.83;89.42;100176.88;4953746;28;21047;-60
2021/08/19 09:30:58;;;;;;;0.40;0.30;;;;;;;22.74;90.31;100173.00;4946079;28;20462;-60
2021/08/19 09:33:27;;;;;;;0.40;0.30;;;;;;;22.47;89.89;100178.78;4957409;28;20451;-59
2021/08/19 09:36:05;;;;;;;0.50;0.40;;;;;;;22.59;90.18;100175.13;4947056;28;20558;-59
2021/08/19 09:38:37;;;;;;;0.40;0.30;;;;;;;22.89;89.78;100177.25;4939136;29;20989;-59
2021/08/19 09:41:13;;;;;;;0.40;0.30;;;;;;;22.67;88.97;100178.09;4939021;29;20458;-59
2021/08/19 09:43:52;;;;;;;0.40;0.30;;;;;;;22.76;87.71;100166.50;4938705;29;20931;-59
2021/08/19 09:46:31;;;;;;;0.40;0.20;;;;;;;23.14;86.61;100172.50;4954524;29;20451;-59
2021/08/19 09:49:00;;;;;;;0.50;0.40;;;;;;;23.10;87.93;100171.91;4957223;28;20872;-59
2021/08/19 09:51:28;;;;;;;0.40;0.30;;;;;;;23.03;87.66;100165.28;4957491;28;20456;-58
2021/08/19 09:53:59;;;;;;;0.40;0.30;;;;;;;23.32;86.44;100157.41;4944530;29;20456;-59
2021/08/19 09:56:31;;;;;;;0.40;0.20;;;;;;;23.19;87.08;100163.00;4951595;29;20451;-59
2021/08/19 09:59:21;;;;;;;0.40;0.30;;;;;;;23.33;87.15;100164.56;4938233;29;20480;-59
2021/08/19 10:01:51;;;;;;;0.60;0.60;;;;;;;23.76;85.35;100164.53;4938240;29;20846;-59
2021/08/19 10:04:19;;;;;;;0.40;0.30;;;;;;;23.75;85.25;100159.25;4938272;29;20490;-59
2021/08/19 10:06:47;;;;;;;0.50;0.40;;;;;;;23.73;84.76;100162.09;4948864;29;20810;-59
2021/08/19 10:09:14;;;;;;;0.83;0.83;;;;;;;23.58;86.25;100168.84;4956707;28;20471;-59
2021/08/19 10:11:43;;;;;;;0.40;0.30;;;;;;;23.67;84.79;100159.03;4947749;28;20434;-59
2021/08/19 10:14:13;;;;;;;0.40;0.20;;;;;;;23.86;85.23;100160.06;4950339;29;20895;-59
2021/08/19 10:16:42;;;;;;;0.40;0.30;;;;;;;23.76;83.59;100163.69;4937585;29;20486;-59
2021/08/19 10:19:14;;;;;;;0.50;0.40;;;;;;;23.77;84.49;100163.53;4937595;29;20992;-59
2021/08/19 10:21:45;;;;;;;0.40;0.20;;;;;;;23.55;84.15;100159.03;4937555;29;20434;-59
2021/08/19 10:24:13;;;;;;;0.40;0.30;;;;;;;23.64;84.19;100162.88;4937576;29;20419;-59
2021/08/19 10:26:40;;;;;;;0.40;0.30;;;;;;;23.24;85.13;100159.91;4951236;29;20966;-59
2021/08/19 10:29:07;;;;;;;0.40;0.20;;;;;;;23.49;83.07;100158.72;4951990;28;20490;-59
2021/08/19 10:31:38;;;;;;;0.40;0.20;;;;;;;23.04;86.86;100159.72;4951998;29;20490;-59
2021/08/19 10:34:07;;;;;;;0.40;0.30;;;;;;;22.97;87.94;100150.34;4956858;28;20458;-58
2021/08/19 10:36:46;;;;;;;0.40;0.30;;;;;;;23.20;87.61;100153.88;4940905;28;21149;-59
2021/08/19 10:39:18;;;;;;;0.40;0.20;;;;;;;23.77;85.43;100158.13;4937212;29;20578;-59
2021/08/19 10:41:46;;;;;;;0.40;0.20;;;;;;;23.84;84.99;100147.56;4936772;29;20478;-59
2021/08/19 10:44:45;;;;;;;0.40;0.20;;;;;;;23.86;83.96;100151.03;4938335;29;20921;-59
2021/08/19 10:47:34;;;;;;;0.90;0.73;;;;;;;23.79;84.28;100149.84;4956505;29;20504;-59
2021/08/19 10:50:28;;;;;;;0.40;0.30;;;;;;;23.48;83.97;100149.72;4931603;29;20481;-57
2021/08/19 10:52:58;;;;;;;0.40;0.20;;;;;;;23.76;83.71;100150.09;4956429;28;20506;-57
2021/08/19 10:55:25;;;;;;;0.40;0.30;;;;;;;23.54;85.17;100140.16;4950697;28;20475;-57
2021/08/19 10:57:54;;;;;;;0.50;0.40;;;;;;;23.52;84.03;100145.72;4934025;29;20870;-57
2021/08/19 11:00:39;;;;;;;0.40;0.20;;;;;;;23.51;85.33;100148.59;4936975;29;20457;-57
2021/08/19 11:03:07;;;;;;;0.50;0.30;;;;;;;23.53;85.81;100146.59;4936970;29;20482;-57
2021/08/19 11:05:37;;;;;;;0.40;0.30;;;;;;;23.53;86.04;100152.03;4938702;29;20431;-56
2021/08/19 11:08:04;;;;;;;0.40;0.30;;;;;;;23.47;93.73;100158.84;4955781;28;20475;-57
2021/08/19 11:10:36;;;;;;;0.40;0.20;;;;;;;22.80;95.21;100152.69;4955873;28;20974;-57
2021/08/19 11:13:08;;;;;;;0.40;0.20;;;;;;;22.57;95.56;100151.84;4935289;29;20474;-57
2021/08/19 11:15:45;;;;;;;0.50;0.40;;;;;;;22.39;93.73;100151.47;4952518;28;20535;-57
2021/08/19 11:18:26;;;;;;;0.40;0.20;;;;;;;22.50;92.52;100150.63;4936623;29;20495;-57
2021/08/19 11:20:53;;;;;;;2.50;0.70;;;;;;;22.79;89.57;100141.00;4936657;29;20463;-57
2021/08/19 11:23:31;;;;;;;0.40;0.20;;;;;;;22.79;89.20;100150.97;4936377;29;20460;-56
2021/08/19 11:26:04;;;;;;;0.40;0.30;;;;;;;23.39;88.04;100144.19;4944942;29;21003;-56